createdAt,value
2023-05-20T00:02:53.237Z,8.60
2023-05-20T00:08:55.977Z,8.60
2023-05-20T00:14:58.402Z,8.60
2023-05-20T00:21:00.806Z,8.50
2023-05-20T00:27:03.062Z,8.50
2023-05-20T00:33:05.518Z,8.40
2023-05-20T00:39:08.156Z,8.50
2023-05-20T00:45:11.265Z,8.60
2023-05-20T00:51:14.516Z,8.60
2023-05-20T00:57:17.542Z,8.60
2023-05-20T01:03:20.020Z,8.70
2023-05-20T01:09:22.454Z,8.80
2023-05-20T01:15:27.528Z,8.90
2023-05-20T01:21:34.707Z,9.10
2023-05-20T01:27:37.133Z,9.20
2023-05-20T01:33:42.101Z,9.30
2023-05-20T01:39:45.529Z,9.40
2023-05-20T01:45:47.951Z,9.40
2023-05-20T01:51:50.443Z,9.50
2023-05-20T01:57:52.948Z,9.60
2023-05-20T02:03:56.111Z,9.60
2023-05-20T02:09:59.084Z,9.60
2023-05-20T02:16:03.837Z,9.60
2023-05-20T02:22:07.488Z,9.70
2023-05-20T02:28:10.980Z,9.70
2023-05-20T02:34:13.498Z,9.70
2023-05-20T02:40:16.060Z,9.90
2023-05-20T02:46:19.768Z,9.90
2023-05-20T02:52:22.155Z,9.90
2023-05-20T02:58:26.446Z,9.80
2023-05-20T03:04:29.212Z,9.70
2023-05-20T03:10:31.775Z,9.60
2023-05-20T03:16:36.005Z,9.50
2023-05-20T03:22:38.522Z,9.60
2023-05-20T03:28:40.953Z,9.60
2023-05-20T03:34:44.162Z,9.60
2023-05-20T03:40:46.819Z,9.60
2023-05-20T03:46:49.270Z,9.60
2023-05-20T03:52:51.914Z,9.60
2023-05-20T03:58:57.177Z,9.60
2023-05-20T04:05:01.523Z,9.70
2023-05-20T04:11:04.047Z,9.80
2023-05-20T04:17:06.661Z,10.10
2023-05-20T04:23:09.222Z,10.30
2023-05-20T04:29:12.030Z,10.60
2023-05-20T04:35:14.644Z,10.90
2023-05-20T04:41:20.223Z,11.30
2023-05-20T04:47:22.699Z,11.60
2023-05-20T04:53:25.101Z,11.80
2023-05-20T04:59:29.369Z,12.10
2023-05-20T05:05:31.950Z,12.30
2023-05-20T05:11:34.491Z,12.70
2023-05-20T05:17:37.096Z,12.80
2023-05-20T05:23:40.166Z,13.10
2023-05-20T05:29:42.780Z,13.30
2023-05-20T05:35:45.422Z,13.60
2023-05-20T05:41:48.096Z,13.80
2023-05-20T05:47:50.764Z,14.20
2023-05-20T05:53:53.442Z,14.60
2023-05-20T05:59:56.076Z,14.80
2023-05-20T06:05:59.319Z,15.20
2023-05-20T06:12:02.578Z,15.40
2023-05-20T06:18:17.355Z,15.20
2023-05-20T06:24:26.638Z,15.20
2023-05-20T06:30:29.283Z,15.10
2023-05-20T06:36:33.667Z,15.30
2023-05-20T06:42:36.366Z,15.20
2023-05-20T06:48:39.953Z,15.30
2023-05-20T06:54:43.320Z,15.60
2023-05-20T07:00:47.718Z,15.60
2023-05-20T07:06:51.368Z,15.50
2023-05-20T07:12:55.568Z,15.40
2023-05-20T07:18:58.328Z,15.30
2023-05-20T07:25:01.391Z,15.50
2023-05-20T07:31:03.864Z,15.50
2023-05-20T07:37:10.126Z,15.60
2023-05-20T07:43:13.104Z,15.60
2023-05-20T07:49:15.782Z,16.10
2023-05-20T07:55:18.806Z,16.50
2023-05-20T08:01:22.131Z,17.10
2023-05-20T08:07:25.156Z,17.50
2023-05-20T08:13:29.632Z,17.70
2023-05-20T08:19:32.160Z,18.20
2023-05-20T08:25:35.077Z,17.70
2023-05-20T08:31:38.552Z,17.80
2023-05-20T08:37:42.883Z,18.30
2023-05-20T08:43:45.992Z,18.60
2023-05-20T08:49:49.988Z,18.50
2023-05-20T08:56:07.335Z,19.30
2023-05-20T09:02:12.436Z,19.30
2023-05-20T09:08:16.260Z,19.10
2023-05-20T09:14:18.781Z,18.80
2023-05-20T09:20:23.243Z,18.50
2023-05-20T09:26:30.196Z,18.20
2023-05-20T09:32:32.897Z,18.30
2023-05-20T09:38:39.439Z,18.50
2023-05-20T09:44:45.153Z,18.60
2023-05-20T09:50:49.932Z,18.80
2023-05-20T09:56:54.088Z,18.90
2023-05-20T10:02:57.514Z,19.10
2023-05-20T10:09:15.452Z,18.60
2023-05-20T10:15:32.752Z,18.10
2023-05-20T10:21:36.158Z,18.40
2023-05-20T10:27:48.830Z,18.40
2023-05-20T10:33:54.639Z,18.30
2023-05-20T10:40:09.281Z,18.30
2023-05-20T10:46:31.830Z,18.20
2023-05-20T10:52:38.374Z,18.30
2023-05-20T10:58:40.935Z,18.30
2023-05-20T11:04:44.327Z,18.10
2023-05-20T11:10:46.724Z,18.00
2023-05-20T11:16:53.588Z,17.70
2023-05-20T11:22:58.758Z,17.40
2023-05-20T11:29:07.027Z,17.30
2023-05-20T11:35:27.770Z,17.50
2023-05-20T11:48:22.393Z,17.70
2023-05-20T11:54:25.245Z,18.30
2023-05-20T12:00:31.273Z,18.90
2023-05-20T12:06:38.838Z,19.70
2023-05-20T12:12:51.799Z,19.00
2023-05-20T12:18:54.148Z,19.10
2023-05-20T12:24:56.668Z,19.40
2023-05-20T12:31:01.441Z,19.80
2023-05-20T12:37:04.402Z,20.10
2023-05-20T12:43:07.069Z,20.50
2023-05-20T12:49:09.446Z,20.70
2023-05-20T12:55:14.030Z,20.70
2023-05-20T13:01:16.597Z,20.40
2023-05-20T13:07:19.024Z,19.40
2023-05-20T13:13:21.863Z,19.00
2023-05-20T13:19:25.136Z,18.80
2023-05-20T13:25:28.050Z,19.10
2023-05-20T13:31:30.628Z,18.70
2023-05-20T13:37:33.103Z,18.50
2023-05-20T13:43:35.414Z,18.40
2023-05-20T13:49:37.687Z,18.30
2023-05-20T13:55:40.635Z,18.00
2023-05-20T14:01:46.565Z,18.00
2023-05-20T14:07:49.240Z,18.30
2023-05-20T14:13:51.581Z,18.10
2023-05-20T14:19:53.987Z,18.00
2023-05-20T14:25:56.360Z,17.90
2023-05-20T14:31:58.766Z,17.90
2023-05-20T14:38:01.154Z,17.80
2023-05-20T14:44:03.650Z,17.70
2023-05-20T14:50:11.405Z,17.40
2023-05-20T14:56:13.745Z,17.50
2023-05-20T15:02:17.152Z,17.40
2023-05-20T15:08:20.038Z,17.30
2023-05-20T15:14:27.926Z,17.40
2023-05-20T15:20:32.789Z,17.40
2023-05-20T15:26:35.408Z,17.40
2023-05-20T15:32:38.081Z,17.60
2023-05-20T15:38:40.699Z,18.00
2023-05-20T15:44:43.302Z,18.20
2023-05-20T15:50:48.406Z,18.40
2023-05-20T15:56:56.425Z,18.50
2023-05-20T16:02:59.334Z,19.10
2023-05-20T16:09:02.588Z,19.80
2023-05-20T16:15:06.710Z,19.90
2023-05-20T16:21:09.341Z,19.50
2023-05-20T16:27:12.809Z,20.40
2023-05-20T16:33:17.777Z,21.80
2023-05-20T16:39:20.907Z,21.50
2023-05-20T16:45:23.650Z,21.80
2023-05-20T16:51:28.975Z,21.60
2023-05-20T16:57:32.657Z,22.00
2023-05-20T17:03:36.024Z,21.30
2023-05-20T17:15:54.677Z,19.10
2023-05-20T17:21:57.599Z,18.80
2023-05-20T17:27:59.953Z,19.60
2023-05-20T17:34:02.324Z,19.70
2023-05-20T17:40:08.353Z,19.60
2023-05-20T17:46:12.046Z,19.30
2023-05-20T17:52:17.745Z,19.00
2023-05-20T17:58:24.955Z,18.60
2023-05-20T18:04:28.592Z,18.30
2023-05-20T18:10:31.094Z,18.10
2023-05-20T18:16:33.860Z,17.90
2023-05-20T18:22:36.600Z,17.80
2023-05-20T18:28:39.061Z,17.60
2023-05-20T18:34:43.910Z,17.50
2023-05-20T18:40:46.659Z,17.20
2023-05-20T18:46:49.717Z,17.10
2023-05-20T18:52:52.338Z,16.80
2023-05-20T18:58:54.806Z,16.60
2023-05-20T19:04:57.170Z,16.50
2023-05-20T19:11:02.312Z,16.10
2023-05-20T19:17:07.127Z,15.80
2023-05-20T19:23:09.467Z,15.60
2023-05-20T19:29:11.907Z,15.50
2023-05-20T19:35:14.402Z,15.30
2023-05-20T19:41:16.798Z,14.90
2023-05-20T19:47:19.322Z,14.60
2023-05-20T19:53:21.590Z,14.30
2023-05-20T19:59:23.941Z,14.00
2023-05-20T20:05:26.574Z,13.80
2023-05-20T20:11:29.038Z,13.60
2023-05-20T20:17:33.797Z,13.40
2023-05-20T20:23:37.926Z,13.30
2023-05-20T20:29:41.349Z,13.10
2023-05-20T20:35:43.732Z,13.00
2023-05-20T20:41:50.079Z,12.80
2023-05-20T20:47:54.878Z,12.90
2023-05-20T20:53:57.324Z,12.80
2023-05-20T21:00:00.384Z,12.70
2023-05-20T21:06:03.371Z,12.60
2023-05-20T21:12:06.687Z,12.50
2023-05-20T21:18:09.261Z,12.40
2023-05-20T21:24:11.603Z,12.20
2023-05-20T21:30:15.854Z,12.30
2023-05-20T21:36:18.330Z,12.30
2023-05-20T21:42:21.070Z,12.30
2023-05-20T21:48:23.412Z,12.40
2023-05-20T21:54:25.882Z,12.30
2023-05-20T22:00:28.586Z,12.20
2023-05-20T22:06:35.081Z,12.20
2023-05-20T22:12:42.527Z,12.20
2023-05-20T22:18:47.750Z,12.10
2023-05-20T22:24:50.185Z,11.90
2023-05-20T22:30:52.746Z,11.80
2023-05-20T22:36:55.282Z,11.70
2023-05-20T22:42:57.718Z,11.70
2023-05-20T22:49:01.780Z,11.80
2023-05-20T22:55:04.389Z,11.80
2023-05-20T23:01:08.055Z,11.70
2023-05-20T23:07:14.717Z,11.60
2023-05-20T23:13:17.367Z,11.80
2023-05-20T23:19:19.789Z,12.00
2023-05-20T23:25:22.414Z,12.30
2023-05-20T23:31:26.898Z,12.30
2023-05-20T23:37:29.332Z,12.30
2023-05-20T23:43:31.708Z,12.50
2023-05-20T23:49:34.662Z,12.50
2023-05-20T23:55:37.645Z,12.90
